San Pedro Sula, Honduras
Current Conditions -  °F | °C
As of 2:00 PM on Friday 21 Nov 2014 (Local Time) from MHLM Reporting Station
Broken Clouds Broken Clouds  
Wind Chill: 84°   Ceiling: 25000
Heat Index: 91°   Visibility: 6mi
Dew Point: 73°   Wind: 7mph
Humidity: 70%   Direction: 10°N
Pressure: 29.91"   Gusts: NA
Location:  15.47°N, 88.03°W
Report Text: MHLM 212000Z 01006KT 9999 SCT028 BKN250 29/23 Q1013 A2991 NOSIG
Loading
Personal Weather Stations






























Interactive Weather Map New forecast layout! Learn more

10-Day Weather Forecast

Advertisements
Track Severe Weather on mobile